createdAt,value
2018-09-24T00:03:16.103Z,10.49
2018-09-24T00:06:27.791Z,10.49
2018-09-24T00:09:35.677Z,10.51
2018-09-24T00:12:41.877Z,10.49
2018-09-24T00:15:49.363Z,10.45
2018-09-24T00:18:55.085Z,10.36
2018-09-24T00:22:01.733Z,10.22
2018-09-24T00:25:12.184Z,10.18
2018-09-24T00:28:17.610Z,10.09
2018-09-24T00:31:24.080Z,9.93
2018-09-24T00:34:40.915Z,9.93
2018-09-24T00:37:45.930Z,9.83
2018-09-24T00:40:52.127Z,9.79
2018-09-24T00:43:57.393Z,9.72
2018-09-24T00:47:02.697Z,9.64
2018-09-24T00:50:11.079Z,9.55
2018-09-24T00:53:16.089Z,9.55
2018-09-24T00:56:21.137Z,9.59
2018-09-24T00:59:26.183Z,9.58
2018-09-24T01:02:32.383Z,9.50
2018-09-24T01:05:37.413Z,9.47
2018-09-24T01:08:42.526Z,9.47
2018-09-24T01:11:49.719Z,9.45
2018-09-24T01:14:55.698Z,9.33
2018-09-24T01:18:00.774Z,9.29
2018-09-24T01:21:05.825Z,9.30
2018-09-24T01:24:11.833Z,9.25
2018-09-24T01:27:16.838Z,9.25
2018-09-24T01:30:21.917Z,9.29
2018-09-24T01:33:26.946Z,9.27
2018-09-24T01:36:32.912Z,9.23
2018-09-24T01:39:38.937Z,9.18
2018-09-24T01:42:44.029Z,9.13
2018-09-24T01:45:49.061Z,8.97
2018-09-24T01:48:54.099Z,9.02
2018-09-24T01:51:59.865Z,9.03
2018-09-24T01:55:05.708Z,9.04
2018-09-24T01:58:10.744Z,9.00
2018-09-24T02:01:15.775Z,9.02
2018-09-24T02:04:20.842Z,8.98
2018-09-24T02:07:25.918Z,9.02
2018-09-24T02:10:30.947Z,8.95
2018-09-24T02:13:47.206Z,8.97
2018-09-24T02:16:54.003Z,8.97
2018-09-24T02:19:59.015Z,8.87
2018-09-24T02:23:04.871Z,8.79
2018-09-24T02:26:10.327Z,8.76
2018-09-24T02:29:16.405Z,8.69
2018-09-24T02:32:23.105Z,8.60
2018-09-24T02:35:29.339Z,8.62
2018-09-24T02:38:40.077Z,8.70
2018-09-24T02:41:46.469Z,8.76
2018-09-24T02:44:55.187Z,8.84
2018-09-24T02:48:00.242Z,8.88
2018-09-24T02:51:06.466Z,8.92
2018-09-24T02:54:12.389Z,8.91
2018-09-24T02:57:17.441Z,8.78
2018-09-24T03:00:22.540Z,8.88
2018-09-24T03:03:27.530Z,8.87
2018-09-24T03:06:35.279Z,8.89
2018-09-24T03:09:40.312Z,8.89
2018-09-24T03:12:47.488Z,8.81
2018-09-24T03:15:52.566Z,8.77
2018-09-24T03:18:59.202Z,8.74
2018-09-24T03:22:04.350Z,8.70
2018-09-24T03:25:15.950Z,8.71
2018-09-24T03:28:20.974Z,8.71
2018-09-24T03:31:26.098Z,8.80
2018-09-24T03:34:32.052Z,8.88
2018-09-24T03:37:37.043Z,8.93
2018-09-24T03:40:42.922Z,8.97
2018-09-24T03:43:48.985Z,8.95
2018-09-24T03:46:54.921Z,9.02
2018-09-24T03:50:00.729Z,9.06
2018-09-24T03:53:06.949Z,9.11
2018-09-24T03:56:13.717Z,9.16
2018-09-24T03:59:18.894Z,9.13
2018-09-24T04:02:24.025Z,9.05
2018-09-24T04:05:34.724Z,9.00
2018-09-24T04:08:45.386Z,8.84
2018-09-24T04:11:57.158Z,8.77
2018-09-24T04:15:07.874Z,8.71
2018-09-24T04:18:19.682Z,8.75
2018-09-24T04:21:30.387Z,8.77
2018-09-24T04:24:41.102Z,8.76
2018-09-24T04:27:52.602Z,8.76
2018-09-24T04:31:03.935Z,8.80
2018-09-24T04:34:15.666Z,8.83
2018-09-24T04:37:27.420Z,8.83
2018-09-24T04:40:39.127Z,8.81
2018-09-24T04:43:51.689Z,8.79
2018-09-24T04:47:02.484Z,8.82
2018-09-24T04:50:15.391Z,8.79
2018-09-24T04:53:29.896Z,8.78
2018-09-24T04:56:43.469Z,8.78
2018-09-24T04:59:55.551Z,8.77
2018-09-24T05:03:07.041Z,8.76
2018-09-24T05:06:19.014Z,8.75
2018-09-24T05:09:30.640Z,8.76
2018-09-24T05:46:24.608Z,8.57
2018-09-24T05:49:36.557Z,8.51
2018-09-24T05:52:49.069Z,8.53
2018-09-24T05:56:02.286Z,8.47
2018-09-24T05:59:13.219Z,8.49
2018-09-24T06:02:23.881Z,8.43
2018-09-24T06:05:45.409Z,8.46
2018-09-24T06:09:08.009Z,8.41
2018-09-24T06:12:18.963Z,8.42
2018-09-24T06:15:30.661Z,8.49
2018-09-24T06:18:41.559Z,8.54
2018-09-24T06:21:55.868Z,8.57
2018-09-24T06:25:06.809Z,8.66
2018-09-24T06:28:18.729Z,8.71
2018-09-24T06:31:30.685Z,8.76
2018-09-24T06:34:53.534Z,8.81
2018-09-24T06:38:10.814Z,8.87
2018-09-24T06:41:29.965Z,8.90
2018-09-24T06:44:51.831Z,8.91
2018-09-24T06:48:02.677Z,9.03
2018-09-24T06:51:14.152Z,8.97
2018-09-24T06:54:26.343Z,9.22
2018-09-24T06:57:39.060Z,9.36
2018-09-24T07:00:51.687Z,9.58
2018-09-24T07:04:13.266Z,9.60
2018-09-24T07:11:33.198Z,10.53
2018-09-24T07:14:47.530Z,10.80
2018-09-24T07:17:59.088Z,10.56
2018-09-24T07:21:11.054Z,10.76
2018-09-24T07:24:21.884Z,10.98
2018-09-24T07:27:32.670Z,11.30
2018-09-24T07:30:45.122Z,11.27
2018-09-24T07:33:57.030Z,11.32
2018-09-24T07:37:08.507Z,11.16
2018-09-24T07:40:20.024Z,11.43
2018-09-24T07:43:32.037Z,11.63
2018-09-24T07:46:43.988Z,11.48
2018-09-24T07:49:55.853Z,11.64
2018-09-24T07:53:08.775Z,11.45
2018-09-24T07:56:20.330Z,11.70
2018-09-24T07:59:33.126Z,11.97
2018-09-24T08:02:45.890Z,12.05
2018-09-24T08:05:57.735Z,12.07
2018-09-24T08:09:11.199Z,11.83
2018-09-24T08:12:22.318Z,12.02
2018-09-24T08:15:36.098Z,11.89
2018-09-24T08:18:47.014Z,12.08
2018-09-24T08:21:58.014Z,12.19
2018-09-24T08:25:08.771Z,12.30
2018-09-24T08:28:20.748Z,12.51
2018-09-24T08:31:31.456Z,12.92
2018-09-24T08:34:42.982Z,13.02
2018-09-24T08:37:56.622Z,12.92
2018-09-24T08:41:07.536Z,13.00
2018-09-24T08:44:19.540Z,12.92
2018-09-24T08:47:30.370Z,13.09
2018-09-24T08:50:41.218Z,13.21
2018-09-24T08:53:54.653Z,13.30
2018-09-24T08:57:06.605Z,13.51
2018-09-24T09:00:18.551Z,13.76
2018-09-24T09:03:30.548Z,13.93
2018-09-24T09:06:41.422Z,13.88
2018-09-24T09:09:52.286Z,13.63
2018-09-24T09:13:04.190Z,13.88
2018-09-24T09:16:16.270Z,14.06
2018-09-24T09:19:27.141Z,13.86
2018-09-24T09:22:38.735Z,13.77
2018-09-24T09:25:49.605Z,13.93
2018-09-24T09:29:01.290Z,14.06
2018-09-24T09:32:13.621Z,14.33
2018-09-24T09:35:24.401Z,14.35
2018-09-24T09:38:35.851Z,14.53
2018-09-24T09:41:47.727Z,14.75
2018-09-24T09:45:00.441Z,14.93
2018-09-24T09:48:11.273Z,15.24
2018-09-24T09:51:23.042Z,15.05
2018-09-24T09:54:34.634Z,14.84
2018-09-24T09:57:45.317Z,14.46
2018-09-24T10:00:56.970Z,14.49
2018-09-24T10:04:09.792Z,14.88
2018-09-24T10:07:22.409Z,15.01
2018-09-24T10:10:33.514Z,15.16
2018-09-24T10:13:45.725Z,15.40
2018-09-24T10:16:56.908Z,15.58
2018-09-24T10:20:08.723Z,15.84
2018-09-24T10:23:22.363Z,15.32
2018-09-24T10:26:35.083Z,15.02
2018-09-24T10:29:47.118Z,15.25
2018-09-24T10:32:59.249Z,15.32
2018-09-24T10:36:10.965Z,15.64
2018-09-24T10:39:22.882Z,15.87
2018-09-24T10:42:37.297Z,15.97
2018-09-24T10:45:49.046Z,16.10
2018-09-24T10:49:00.547Z,16.16
2018-09-24T10:52:12.124Z,16.68
2018-09-24T10:55:23.107Z,16.93
2018-09-24T10:58:35.131Z,16.53
2018-09-24T11:01:46.750Z,16.57
2018-09-24T11:04:58.525Z,16.68
2018-09-24T11:08:10.677Z,16.59
2018-09-24T11:11:21.363Z,16.93
2018-09-24T11:14:32.254Z,16.85
2018-09-24T11:17:43.950Z,16.78
2018-09-24T11:20:55.569Z,16.50
2018-09-24T11:24:06.605Z,16.71
2018-09-24T11:27:17.604Z,16.88
2018-09-24T11:30:28.456Z,16.80
2018-09-24T11:33:41.069Z,16.52
2018-09-24T11:36:52.510Z,16.20
2018-09-24T11:40:04.456Z,15.90
2018-09-24T11:43:15.162Z,15.36
2018-09-24T11:46:26.694Z,15.18
2018-09-24T11:49:37.368Z,15.28
2018-09-24T11:52:49.208Z,15.85
2018-09-24T11:56:00.038Z,16.45
2018-09-24T11:59:10.928Z,16.93
2018-09-24T12:02:21.631Z,17.28
2018-09-24T12:05:32.978Z,17.68
2018-09-24T12:08:43.567Z,17.97
2018-09-24T12:15:03.559Z,17.41
2018-09-24T12:18:15.055Z,17.15
2018-09-24T12:21:26.537Z,16.81
2018-09-24T12:24:38.799Z,17.25
2018-09-24T12:28:04.407Z,17.96
2018-09-24T12:31:34.338Z,18.24
2018-09-24T12:34:48.695Z,17.71
2018-09-24T12:38:06.590Z,17.97
2018-09-24T12:41:18.074Z,18.10
2018-09-24T12:44:31.962Z,17.56
2018-09-24T12:47:51.206Z,16.90
2018-09-24T12:51:11.921Z,16.63
2018-09-24T12:54:28.012Z,16.32
2018-09-24T12:57:46.676Z,16.22
2018-09-24T13:00:59.812Z,16.19
2018-09-24T13:04:12.426Z,16.13
2018-09-24T13:07:33.641Z,16.18
2018-09-24T13:10:45.140Z,15.93
2018-09-24T13:14:00.670Z,15.81
2018-09-24T13:17:12.158Z,15.97
2018-09-24T13:20:24.159Z,16.56
2018-09-24T13:23:36.598Z,17.30
2018-09-24T13:26:53.888Z,17.71
2018-09-24T13:30:09.942Z,17.28
2018-09-24T13:33:25.235Z,16.52
2018-09-24T13:36:45.294Z,16.26
2018-09-24T13:40:06.106Z,16.15
2018-09-24T13:43:23.255Z,16.08
2018-09-24T13:46:45.434Z,16.12
2018-09-24T13:50:09.803Z,15.96
2018-09-24T13:53:27.867Z,15.94
2018-09-24T13:56:53.380Z,15.76
2018-09-24T14:00:15.624Z,15.44
2018-09-24T14:03:33.433Z,15.31
2018-09-24T14:07:00.928Z,15.18
2018-09-24T14:10:19.603Z,15.02
2018-09-24T14:13:34.495Z,15.44
2018-09-24T14:16:53.424Z,16.01
2018-09-24T14:20:15.473Z,16.18
2018-09-24T14:23:31.526Z,16.61
2018-09-24T14:26:47.217Z,16.67
2018-09-24T14:30:06.052Z,16.54
2018-09-24T14:33:17.335Z,16.65
2018-09-24T14:36:32.465Z,16.53
2018-09-24T14:39:46.338Z,16.73
2018-09-24T14:43:01.671Z,16.54
2018-09-24T14:46:14.862Z,16.68
2018-09-24T14:49:29.615Z,16.91
2018-09-24T14:52:47.342Z,16.60
2018-09-24T14:56:01.045Z,16.63
2018-09-24T14:59:13.808Z,16.73
2018-09-24T15:02:25.636Z,16.56
2018-09-24T15:05:38.082Z,16.62
2018-09-24T15:08:57.759Z,16.60
2018-09-24T15:12:11.552Z,16.25
2018-09-24T15:15:25.753Z,16.05
2018-09-24T15:18:40.818Z,15.61
2018-09-24T15:21:55.559Z,15.29
2018-09-24T15:25:09.582Z,15.12
2018-09-24T15:28:22.443Z,15.14
2018-09-24T15:31:34.098Z,15.47
2018-09-24T15:34:44.914Z,15.63
2018-09-24T15:37:56.873Z,15.78
2018-09-24T15:41:07.766Z,15.76
2018-09-24T15:44:20.062Z,15.88
2018-09-24T15:47:31.724Z,15.92
2018-09-24T15:50:43.314Z,15.99
2018-09-24T15:53:55.155Z,15.93
2018-09-24T15:57:06.154Z,15.68
2018-09-24T16:00:17.129Z,15.46
2018-09-24T16:03:28.350Z,15.23
2018-09-24T16:06:42.191Z,15.12
2018-09-24T16:09:56.028Z,15.02
2018-09-24T16:13:09.233Z,14.96
2018-09-24T16:16:23.372Z,14.80
2018-09-24T16:19:37.934Z,14.61
2018-09-24T16:22:50.599Z,14.55
2018-09-24T16:26:05.431Z,14.51
2018-09-24T16:29:18.145Z,14.41
2018-09-24T16:35:52.187Z,14.18
2018-09-24T16:39:08.108Z,14.05
2018-09-24T16:42:24.697Z,13.87
2018-09-24T16:45:39.789Z,13.61
2018-09-24T16:48:53.435Z,13.47
2018-09-24T16:52:11.923Z,13.50
2018-09-24T16:55:25.617Z,13.41
2018-09-24T16:58:37.495Z,13.34
2018-09-24T17:01:50.266Z,13.23
2018-09-24T17:05:04.827Z,13.15
2018-09-24T17:08:22.348Z,13.11
2018-09-24T17:11:34.958Z,13.07
2018-09-24T17:14:47.250Z,12.98
2018-09-24T17:17:59.444Z,12.89
2018-09-24T17:21:12.134Z,12.79
2018-09-24T17:24:24.095Z,12.73
2018-09-24T17:27:34.853Z,12.67
2018-09-24T17:30:46.275Z,12.61
2018-09-24T17:33:57.820Z,12.57
2018-09-24T17:37:09.800Z,12.51
2018-09-24T17:40:20.860Z,12.43
2018-09-24T17:43:31.716Z,12.36
2018-09-24T17:46:44.238Z,12.29
2018-09-24T17:49:55.183Z,12.21
2018-09-24T17:53:06.891Z,12.12
2018-09-24T17:56:19.435Z,12.02
2018-09-24T17:59:31.355Z,11.89
2018-09-24T18:02:43.120Z,11.70
2018-09-24T18:05:54.580Z,11.56
2018-09-24T18:09:06.015Z,11.44
2018-09-24T18:12:16.787Z,11.28
2018-09-24T18:15:28.837Z,11.21
2018-09-24T18:18:40.604Z,11.09
2018-09-24T18:21:51.430Z,10.96
2018-09-24T18:25:03.038Z,10.88
2018-09-24T18:28:15.000Z,10.76
2018-09-24T18:31:26.593Z,10.68
2018-09-24T18:34:38.278Z,10.55
2018-09-24T18:37:51.460Z,10.48
2018-09-24T18:41:08.969Z,10.41
2018-09-24T18:44:29.663Z,10.36
2018-09-24T18:47:40.447Z,10.28
2018-09-24T18:50:52.193Z,10.24
2018-09-24T18:54:03.863Z,10.19
2018-09-24T18:57:15.880Z,10.12
2018-09-24T19:00:27.658Z,9.97
2018-09-24T19:03:39.205Z,9.84
2018-09-24T19:06:49.837Z,9.73
2018-09-24T19:10:00.522Z,9.64
2018-09-24T19:13:11.442Z,9.55
2018-09-24T19:16:22.938Z,9.55
2018-09-24T19:19:33.786Z,9.51
2018-09-24T19:22:44.652Z,9.46
2018-09-24T19:25:55.618Z,9.44
2018-09-24T19:29:06.222Z,9.37
2018-09-24T19:32:16.929Z,9.30
2018-09-24T19:35:28.397Z,9.20
2018-09-24T19:38:39.089Z,9.16
2018-09-24T19:41:49.814Z,9.12
2018-09-24T19:45:00.500Z,9.03
2018-09-24T19:48:11.863Z,8.95
2018-09-24T19:51:22.568Z,8.76
2018-09-24T19:54:33.298Z,8.68
2018-09-24T19:57:44.182Z,8.59
2018-09-24T20:00:55.695Z,8.54
2018-09-24T20:04:06.318Z,8.49
2018-09-24T20:07:17.869Z,8.47
2018-09-24T20:10:28.536Z,8.45
2018-09-24T20:13:40.141Z,8.43
2018-09-24T20:16:50.716Z,8.38
2018-09-24T20:20:01.387Z,8.34
2018-09-24T20:23:12.176Z,8.25
2018-09-24T20:26:23.059Z,8.19
2018-09-24T20:29:33.690Z,8.15
2018-09-24T20:32:45.287Z,8.13
2018-09-24T20:35:55.881Z,8.08
2018-09-24T20:39:06.700Z,7.97
2018-09-24T20:42:18.113Z,7.96
2018-09-24T20:45:28.749Z,7.85
2018-09-24T20:48:39.538Z,7.80
2018-09-24T20:51:50.189Z,7.71
2018-09-24T20:55:00.838Z,7.68
2018-09-24T20:58:11.589Z,7.68
2018-09-24T21:01:22.389Z,7.69
2018-09-24T21:04:33.008Z,7.64
2018-09-24T21:07:43.690Z,7.59
2018-09-24T21:25:37.885Z,7.40
2018-09-24T21:28:48.613Z,7.37
2018-09-24T21:39:57.566Z,6.91
2018-09-24T21:43:09.191Z,6.92
2018-09-24T21:46:20.986Z,6.92
2018-09-24T21:49:32.228Z,6.95
2018-09-24T21:52:42.894Z,6.97
2018-09-24T21:55:53.627Z,6.84
2018-09-24T22:02:27.197Z,6.84
2018-09-24T22:05:38.150Z,6.77
2018-09-24T22:08:48.817Z,6.69
2018-09-24T22:11:59.505Z,6.65
2018-09-24T22:15:10.177Z,6.63
2018-09-24T22:18:21.030Z,6.61
2018-09-24T22:21:31.652Z,6.52
2018-09-24T22:24:42.445Z,6.56
2018-09-24T22:27:53.044Z,6.51
2018-09-24T22:31:03.864Z,6.47
2018-09-24T22:34:14.391Z,6.36
2018-09-24T22:37:25.117Z,6.34
2018-09-24T22:40:35.841Z,6.26
2018-09-24T22:43:46.437Z,6.26
2018-09-24T22:46:57.222Z,6.18
2018-09-24T22:50:07.831Z,6.18
2018-09-24T22:53:18.695Z,6.13
2018-09-24T22:56:29.391Z,6.11
2018-09-24T22:59:40.154Z,6.17
2018-09-24T23:02:50.806Z,6.15
2018-09-24T23:06:01.535Z,6.10
2018-09-24T23:09:13.181Z,6.11
2018-09-24T23:12:24.007Z,6.05
2018-09-24T23:15:34.734Z,5.91
2018-09-24T23:18:45.326Z,5.88
2018-09-24T23:21:56.077Z,5.93
2018-09-24T23:25:07.018Z,5.89
2018-09-24T23:28:17.848Z,5.81
2018-09-24T23:31:28.453Z,5.83
2018-09-24T23:34:39.259Z,5.70
2018-09-24T23:37:50.089Z,5.67
2018-09-24T23:41:00.783Z,5.72
2018-09-24T23:44:11.646Z,5.70
2018-09-24T23:47:22.292Z,5.65
2018-09-24T23:50:32.987Z,5.63
2018-09-24T23:53:43.642Z,5.65
2018-09-24T23:56:54.513Z,5.62
